Krasnosel'kup, Russia
Current Conditions -  °F | °C
As of 3:00 PM on Friday 19 Dec 2014 (Local Time) from USNN Reporting Station
Blowing Snow Blowing Snow  
Wind Chill:   Ceiling: Unl
Heat Index: 21°   Visibility: 6mi
Dew Point: 16°   Wind: 13mph
Humidity: 80%   Direction: 210°SSW
Pressure: 30"   Gusts: NA
Location:  65.68°N, 82.47°E
Report Text: USNN 191000Z 21006MPS 9999 DRSN SCT100 M06/M09 Q1016 NOSIG RMKQFE757 2139//39
Loading
Personal Weather Stations






























Interactive Weather Map New forecast layout! Learn more

10-Day Weather Forecast

Advertisements
Track Severe Weather on mobile